• Join FlightAware (Why Join?)
  • Login
  • US Flag 
11:46PM EDT


 

Airport Tracker/Info


-or-


 

Live Flight TrackerFlight Track Log ✈ AWE3794 ✈ 17-Apr-2013 ✈ KCLE - KPHL

Flight Track Log - Related Links

Times and Time Zones

All times are in EDT time to prevent confusion due to time zone crossing. See the AWE3794 flight status page for this flight to view local times or setup timezone preferences in your user account.

Time Position Orientation Groundspeed Altitude Reporting Facility
EDT Latitude Longitude Course Direction KTS MPH feet Rate Location/Type
09:48AM 41.4153 -81.8375 114° Southeast 159 183 2,000  Level Cleveland Center
09:49AM 41.4200 -81.7847 83° East 177 204 3,800 1,980 Climbing Cleveland Center
09:50AM 41.4103 -81.7211 101° East 244 281 5,400 1,740 Climbing Cleveland Center
09:51AM 41.2404 -81.4972 124° Southeast  Level FlightAware Approximate
09:51AM 41.3897 -81.6819 125° Southeast 254 292 6,300  Level Cleveland Center
09:51AM 41.3672 -81.6428 127° Southeast 291 335 7,100 1,500 Climbing Cleveland Center
09:52AM 41.1830 -81.3827 124° Southeast  Level FlightAware Approximate
09:52AM 41.3219 -81.5619 127° Southeast 306 352 8,500  Level Cleveland Center
09:53AM 41.1270 -81.2674 118° Southeast  Level FlightAware Approximate
09:53AM 41.2686 -81.4700 128° Southeast 311 358 10,400  Level Cleveland Center
09:54AM 41.0814 -81.1443 114° Southeast  Level FlightAware Approximate
09:54AM 41.2089 -81.3781 131° Southeast 324 373 12,400  Level Cleveland Center
09:55AM 41.1450 -81.2669 127° Southeast 343 395 14,200 1,980 Climbing Cleveland Center
09:56AM 41.0914 -81.1478 121° Southeast 360 414 16,400 1,800 Climbing Cleveland Center
09:57AM 41.0606 -81.0292 109° East 366 421 17,800 1,560 Climbing Cleveland Center
09:58AM 41.0236 -80.8969 110° East 378 435 19,600 1,560 Climbing Cleveland Center
09:59AM 40.9883 -80.7647 109° East 378 435 21,000 1,320 Climbing Cleveland Center
10:00AM 40.9469 -80.6272 112° Southeast 393 452 22,300 1,260 Climbing Cleveland Center
10:01AM 40.9072 -80.4869 110° East 393 452 23,600 1,200 Climbing Cleveland Center
10:02AM 40.8653 -80.3442 111° Southeast 399 459 24,700 660 Climbing Cleveland Center
10:03AM 40.8233 -80.2017 111° Southeast 410 472 25,000 120 Climbing Cleveland Center
10:04AM 40.7706 -80.0622 117° Southeast 417 480 25,000  Level Cleveland Center
10:05AM 40.7178 -79.9092 114° Southeast 417 480 25,000  Level Cleveland Center
10:06AM 40.6689 -79.7728 115° Southeast 417 480 25,000  Level Cleveland Center
10:07AM 40.6178 -79.6422 117° Southeast 417 480 25,000  Level Cleveland Center
10:08AM 40.5686 -79.5061 115° Southeast 412 474 25,000  Level Cleveland Center
10:09AM 40.5442 -79.3592 102° East 407 468 25,000  Level Cleveland Center
10:10AM 40.5281 -79.2172 98° East 413 475 25,000  Level Cleveland Center
10:11AM 40.5114 -79.0511 97° East 438 504 25,000  Level Cleveland Center
10:12AM 40.4944 -78.8822 97° East 458 527 25,000  Level Cleveland Center
10:13AM 40.4767 -78.6917 97° East 474 545 25,000  Level Cleveland Center
10:14AM 40.4592 -78.5228 98° East 474 545 25,000  Level Cleveland Center
10:16AM 40.4353 -78.2842 97° East 471 542 25,000  Level New York Center
10:17AM 40.4189 -78.1133 97° East 471 542 25,000  Level New York Center
10:18AM 40.4003 -77.9422 98° East 471 542 25,000  Level New York Center
10:19AM 40.3811 -77.7739 98° East 471 542 25,000 -360 Level New York Center
10:20AM 40.3619 -77.6031 98° East 471 542 24,300 -900 Descending New York Center
10:21AM 40.3442 -77.4378 98° East 465 535 23,300 -1,080 Descending New York Center
10:22AM 40.3208 -77.2586 100° East 465 535 22,200 -1,080 Descending New York Center
10:23AM 40.3058 -77.1128 98° East 460 529 21,200 -1,020 Descending New York Center
10:24AM 40.2725 -76.9519 105° East 453 521 20,200 -1,020 Descending New York Center
10:25AM 40.2369 -76.7964 107° East 448 516 19,200 -1,080 Descending New York Center
10:26AM 40.1994 -76.6300 106° East 443 510 18,100 -840 Descending New York Center
10:27AM 40.1650 -76.4833 107° East 432 497 17,500 -1,260 Descending New York Center
10:28AM 40.1333 -76.3486 107° East 402 463 15,700 -2,040 Descending FAA TRACON SMA TRACON (SMA)
10:28AM 40.1242 -76.3044 105° East 393 452 15,000 -1,980 Descending FAA TRACON SMA TRACON (SMA)
10:28AM 40.1178 -76.2533 99° East 387 445 14,400 -1,980 Descending FAA TRACON SMA TRACON (SMA)
10:29AM 40.1169 -76.2103 91° East 381 438 13,700 -1,800 Descending FAA TRACON SMA TRACON (SMA)
10:29AM 40.1125 -76.1692 98° East 377 434 13,200 -1,800 Descending FAA TRACON SMA TRACON (SMA)
10:29AM 40.1086 -76.1181 96° East 366 421 12,500 -1,680 Descending FAA TRACON SMA TRACON (SMA)
10:30AM 40.1058 -76.0767 95° East 363 418 12,100 -1,560 Descending FAA TRACON SMA TRACON (SMA)
10:30AM 40.1025 -76.0394 97° East 354 407 11,500 -1,500 Descending FAA TRACON SMA TRACON (SMA)
10:30AM 40.1008 -76.0019 93° East 350 403 11,100 -1,500 Descending FAA TRACON SMA TRACON (SMA)
10:31AM 40.0969 -75.9542 96° East 337 388 10,500 -1,680 Descending FAA TRACON SMA TRACON (SMA)
10:31AM 40.0944 -75.9183 95° East 325 374 10,000 -1,500 Descending FAA TRACON SMA TRACON (SMA)
10:31AM 40.0919 -75.8842 95° East 320 368 9,500 -1,500 Descending FAA TRACON SMA TRACON (SMA)
10:32AM 40.0886 -75.8397 96° East 315 362 9,000 -1,500 Descending FAA TRACON SMA TRACON (SMA)
10:32AM 40.0858 -75.8056 96° East 311 358 8,500 -1,320 Descending FAA TRACON SMA TRACON (SMA)
10:32AM 40.0836 -75.7756 96° East 309 356 8,100 -540 Descending FAA TRACON SMA TRACON (SMA)
10:33AM 40.0792 -75.6939 94° East 309 356 8,000 -120 Descending FAA TRACON SMA TRACON (SMA)
10:33AM 40.0769 -75.6642 96° East 308 354 8,000  Level FAA TRACON SMA TRACON (SMA)
10:34AM 40.0761 -75.6172 91° East 305 351 8,000  Level FAA TRACON SMA TRACON (SMA)
10:34AM 40.0750 -75.5833 92° East 305 351 8,000  Level FAA TRACON SMA TRACON (SMA)
10:34AM 40.0728 -75.5489 95° East 305 351 8,000  Level FAA TRACON SMA TRACON (SMA)
10:35AM 40.0711 -75.5061 93° East 305 351 8,000  Level FAA TRACON SMA TRACON (SMA)
10:35AM 40.0692 -75.4722 94° East 304 350 8,000 -480 Level FAA TRACON SMA TRACON (SMA)
10:35AM 40.0586 -75.4408 114° Southeast 313 360 7,700 -1,080 Descending FAA TRACON SMA TRACON (SMA)
10:36AM 40.0314 -75.4161 145° Southeast 308 354 7,300 -1,080 Descending FAA TRACON SMA TRACON (SMA)
10:36AM 40.0072 -75.4106 170° South 301 346 7,000 -900 Descending FAA TRACON SMA TRACON (SMA)
10:36AM 39.9814 -75.4167 190° South 295 339 6,700 -1,080 Descending FAA TRACON SMA TRACON (SMA)
10:37AM 39.9575 -75.4364 212° Southwest 281 323 6,300 -1,080 Descending FAA TRACON SMA TRACON (SMA)
10:37AM 39.9408 -75.4606 228° Southwest 270 311 6,000 -480 Descending FAA TRACON SMA TRACON (SMA)
10:37AM 39.9258 -75.4817 227° Southwest 247 284 6,000  Level FAA TRACON SMA TRACON (SMA)
10:38AM 39.9106 -75.5058 231° Southwest 226 260 6,000  Level FAA TRACON SMA TRACON (SMA)
10:38AM 39.9036 -75.5256 245° Southwest 186 214 6,000  Level FAA TRACON SMA TRACON (SMA)
10:38AM 39.8994 -75.5414 251° West 184 212 6,000  Level FAA TRACON SMA TRACON (SMA)
10:39AM 39.8950 -75.5669 257° West 177 204 6,000  Level FAA TRACON SMA TRACON (SMA)
10:39AM 39.8897 -75.5878 252° West 177 204 6,000 -300 Level FAA TRACON SMA TRACON (SMA)
10:39AM 39.8864 -75.6061 257° West 177 204 5,800 -900 Descending FAA TRACON SMA TRACON (SMA)
10:40AM 39.8806 -75.6294 252° West 178 205 5,400 -1,080 Descending FAA TRACON SMA TRACON (SMA)
10:40AM 39.8764 -75.6508 256° West 181 208 5,100 -600 Descending FAA TRACON SMA TRACON (SMA)
10:40AM 39.8728 -75.6697 256° West 182 209 5,000 -180 Descending FAA TRACON SMA TRACON (SMA)
10:41AM 39.8633 -75.6911 240° Southwest 177 204 5,000  Level FAA TRACON SMA TRACON (SMA)
10:41AM 39.8533 -75.7078 232° Southwest 186 214 5,000 120 Level FAA TRACON SMA TRACON (SMA)
10:41AM 39.8431 -75.7217 226° Southwest 173 199 5,100  Climbing FAA TRACON SMA TRACON (SMA)
10:42AM 39.8250 -75.7194 175° South 192 221 5,000 -780 Descending FAA TRACON SMA TRACON (SMA)
10:42AM 39.8086 -75.7161 171° South 187 215 4,600 -1,200 Descending FAA TRACON SMA TRACON (SMA)
10:42AM 39.7928 -75.7094 162° South 185 213 4,200 -1,200 Descending FAA TRACON SMA TRACON (SMA)
10:43AM 39.7742 -75.7003 159° South 186 214 3,800 -1,200 Descending FAA TRACON SMA TRACON (SMA)
10:43AM 39.7692 -75.6817 109° East 187 215 3,400 -1,080 Descending FAA TRACON SMA TRACON (SMA)
10:43AM 39.7767 -75.6644 60° Northeast 177 204 3,100 -600 Descending FAA TRACON SMA TRACON (SMA)
10:44AM 39.7853 -75.6433 62° Northeast 173 199 3,000 -180 Descending FAA TRACON SMA TRACON (SMA)
10:44AM 39.7919 -75.6264 63° Northeast 173 199 3,000  Level FAA TRACON SMA TRACON (SMA)
10:44AM 39.7975 -75.6078 69° East 176 203 3,000  Level FAA TRACON SMA TRACON (SMA)
10:45AM 39.8006 -75.5861 80° East 175 201 3,000  Level FAA TRACON SMA TRACON (SMA)
10:45AM 39.8036 -75.5639 80° East 176 203 3,000  Level FAA TRACON SMA TRACON (SMA)
10:45AM 39.8058 -75.5447 81° East 175 201 3,000  Level FAA TRACON SMA TRACON (SMA)
10:46AM 39.8092 -75.5244 78° East 174 200 3,000  Level FAA TRACON SMA TRACON (SMA)
10:46AM 39.8139 -75.5025 74° East 174 200 3,000  Level FAA TRACON SMA TRACON (SMA)
10:46AM 39.8183 -75.4844 72° East 175 201 3,000  Level FAA TRACON SMA TRACON (SMA)
10:47AM 39.8239 -75.4608 73° East 174 200 3,000 -480 Level FAA TRACON SMA TRACON (SMA)
10:47AM 39.8275 -75.4425 76° East 172 198 2,700 -780 Descending FAA TRACON SMA TRACON (SMA)
10:47AM 39.8308 -75.4253 76° East 170 196 2,500 -900 Descending FAA TRACON SMA TRACON (SMA)
10:48AM 39.8350 -75.4025 77° East 163 188 2,100 -1,200 Descending FAA TRACON SMA TRACON (SMA)